createdAt,value
2019-04-26T00:09:27.639Z,68.80
2019-04-26T00:19:29.699Z,69.10
2019-04-26T00:29:31.983Z,69.50
2019-04-26T00:39:34.056Z,69.60
2019-04-26T00:49:43.411Z,69.60
2019-04-26T00:59:40.164Z,69.80
2019-04-26T01:09:42.286Z,69.00
2019-04-26T01:19:46.876Z,69.00
2019-04-26T01:29:52.779Z,69.10
2019-04-26T01:39:58.511Z,69.00
2019-04-26T01:50:00.467Z,69.00
2019-04-26T02:00:03.734Z,69.00
2019-04-26T02:10:11.732Z,68.50
2019-04-26T02:20:33.940Z,68.20
2019-04-26T02:30:36.816Z,67.90
2019-04-26T02:40:39.126Z,68.70
2019-04-26T02:50:44.713Z,69.30
2019-04-26T03:00:48.440Z,70.30
2019-04-26T03:11:07.274Z,71.10
2019-04-26T03:21:16.639Z,72.00
2019-04-26T03:31:51.953Z,72.80
2019-04-26T03:42:17.179Z,74.00
2019-04-26T03:53:07.340Z,74.60
2019-04-26T04:03:26.839Z,75.10
2019-04-26T04:13:49.129Z,75.30
2019-04-26T04:24:08.286Z,75.20
2019-04-26T04:34:17.117Z,75.60
2019-04-26T04:44:43.054Z,75.40
2019-04-26T04:55:06.465Z,75.40
2019-04-26T05:05:27.168Z,75.10
2019-04-26T05:15:42.540Z,75.00
2019-04-26T05:26:14.000Z,74.50
2019-04-26T05:36:54.983Z,73.80
2019-04-26T05:47:07.939Z,73.20
2019-04-26T05:57:18.259Z,72.20
2019-04-26T06:07:56.569Z,74.20
2019-04-26T06:18:22.819Z,71.40
2019-04-26T06:28:54.828Z,71.10
2019-04-26T06:39:07.292Z,69.70
2019-04-26T06:49:18.298Z,69.70
2019-04-26T07:00:17.199Z,68.70
2019-04-26T07:10:52.193Z,68.30
2019-04-26T07:21:26.463Z,67.20
2019-04-26T07:31:43.539Z,66.30
2019-04-26T07:42:23.381Z,66.20
2019-04-26T07:52:53.626Z,66.20
2019-04-26T08:03:02.155Z,65.00
2019-04-26T08:13:08.125Z,64.50
2019-04-26T08:23:35.574Z,63.00
2019-04-26T08:33:22.195Z,60.90
2019-04-26T08:43:27.316Z,60.00
2019-04-26T08:53:32.640Z,59.30
2019-04-26T09:03:38.264Z,58.70
2019-04-26T09:13:44.129Z,58.80
2019-04-26T09:23:50.811Z,58.70
2019-04-26T09:33:50.112Z,58.40
2019-04-26T09:43:54.993Z,58.70
2019-04-26T09:53:55.943Z,57.50
2019-04-26T10:03:57.879Z,55.50
2019-04-26T10:13:59.895Z,54.50
2019-04-26T10:24:03.367Z,53.40
2019-04-26T10:34:07.758Z,53.30
2019-04-26T10:44:09.330Z,52.30
2019-04-26T10:54:11.299Z,52.30
2019-04-26T11:04:13.244Z,52.80
2019-04-26T11:14:18.341Z,50.80
2019-04-26T11:24:19.477Z,48.70
2019-04-26T11:34:23.708Z,47.10
2019-04-26T11:44:27.545Z,45.70
2019-04-26T11:54:30.466Z,45.10
2019-04-26T12:04:32.428Z,45.00
2019-04-26T12:14:34.444Z,44.60
2019-04-26T12:24:35.919Z,42.60
2019-04-26T12:34:37.901Z,39.70
2019-04-26T12:44:41.217Z,41.90
2019-04-26T12:54:44.472Z,35.30
2019-04-26T13:04:46.605Z,37.10
2019-04-26T13:14:48.528Z,36.00
2019-04-26T13:24:50.502Z,33.40
2019-04-26T13:34:52.499Z,34.10
2019-04-26T13:44:54.535Z,34.20
2019-04-26T13:54:56.548Z,37.10
2019-04-26T14:04:58.495Z,36.50
2019-04-26T14:15:04.435Z,29.00
2019-04-26T14:25:04.681Z,17.70
2019-04-26T14:35:06.654Z,15.00
2019-04-26T14:45:08.769Z,16.90
2019-04-26T14:55:10.831Z,20.30
2019-04-26T15:05:12.887Z,13.30
2019-04-26T15:15:14.885Z,12.70
2019-04-26T15:25:16.999Z,17.70
2019-04-26T15:35:19.004Z,22.20
2019-04-26T15:45:25.144Z,24.60
2019-04-26T15:55:26.695Z,27.20
2019-04-26T16:05:29.711Z,29.00
2019-04-26T16:15:32.756Z,31.80
2019-04-26T16:25:34.347Z,29.30
2019-04-26T16:35:37.927Z,29.80
2019-04-26T16:45:41.327Z,30.50
2019-04-26T16:55:52.260Z,31.60
2019-04-26T17:05:48.611Z,33.10
2019-04-26T17:15:52.101Z,34.00
2019-04-26T17:25:58.735Z,34.80
2019-04-26T17:36:01.335Z,35.30
2019-04-26T17:46:03.252Z,35.80
2019-04-26T17:56:05.501Z,36.20
2019-04-26T18:06:09.499Z,37.00
2019-04-26T18:16:11.250Z,38.00
2019-04-26T18:26:13.506Z,39.20
2019-04-26T18:36:17.036Z,40.40
2019-04-26T18:46:19.037Z,42.00
2019-04-26T18:56:21.131Z,42.40
2019-04-26T19:06:31.030Z,42.70
2019-04-26T19:16:27.301Z,42.70
2019-04-26T19:26:32.989Z,43.90
2019-04-26T19:36:33.006Z,44.70
2019-04-26T19:46:34.963Z,45.40
2019-04-26T19:56:37.066Z,46.10
2019-04-26T20:06:39.039Z,46.70
2019-04-26T20:16:43.369Z,47.20
2019-04-26T20:26:45.209Z,47.80
2019-04-26T20:36:47.918Z,48.00
2019-04-26T20:46:51.853Z,48.60
2019-04-26T20:56:55.572Z,49.60
2019-04-26T21:06:58.227Z,50.50
2019-04-26T21:17:00.323Z,51.30
2019-04-26T21:27:02.245Z,51.80
2019-04-26T21:37:04.379Z,52.30
2019-04-26T21:47:06.418Z,52.60
2019-04-26T21:57:08.413Z,52.50
2019-04-26T22:07:10.363Z,51.90
2019-04-26T22:17:13.554Z,51.70
2019-04-26T22:27:21.318Z,51.10
2019-04-26T22:37:29.691Z,50.40
2019-04-26T22:47:26.652Z,50.10
2019-04-26T22:57:28.592Z,49.90
2019-04-26T23:07:30.767Z,49.50
2019-04-26T23:17:34.813Z,49.10
2019-04-26T23:27:36.967Z,49.40
2019-04-26T23:37:39.366Z,50.00
2019-04-26T23:47:41.320Z,50.80
2019-04-26T23:57:43.537Z,51.60
